Time;durP1;ratioP1;P1;durP2;ratioP2;P2;SDS_P1;SDS_P2;PMS_P1;PMS_P2;Temp;Humidity;BMP_temperature;BMP_pressure;BME280_temperature;BME280_humidity;BME280_pressure;Samples;Min_cycle;Max_cycle;Signal;HPM_P1;HPM_P2
2021/12/01 00:01:41;;;;;;;3.80;1.83;;;;;;;4.60;57.85;99788.19;4984642;28;20042;-65
2021/12/01 00:04:08;;;;;;;3.72;1.52;;;;;;;4.69;57.88;99779.28;4978179;28;20036;-66
2021/12/01 00:06:34;;;;;;;3.72;1.40;;;;;;;4.54;58.02;99769.41;4983560;28;20053;-65
2021/12/01 00:09:00;;;;;;;2.45;1.13;;;;;;;4.88;57.21;99760.56;4983710;28;20117;-65
2021/12/01 00:11:26;;;;;;;3.63;1.40;;;;;;;4.74;57.89;99751.47;4985300;28;20038;-66
2021/12/01 00:13:51;;;;;;;2.03;1.10;;;;;;;4.62;58.13;99736.38;4971891;28;20053;-66
2021/12/01 00:16:17;;;;;;;2.80;1.30;;;;;;;4.81;57.94;99726.22;4982840;28;20039;-67
2021/12/01 00:18:42;;;;;;;2.17;1.02;;;;;;;4.22;59.88;99725.56;4977814;28;20035;-66
2021/12/01 00:21:08;;;;;;;2.13;0.95;;;;;;;4.70;58.23;99718.00;4982036;28;20379;-66
2021/12/01 00:23:34;;;;;;;3.20;1.15;;;;;;;4.68;58.10;99710.28;4978517;28;20046;-67
2021/12/01 00:26:00;;;;;;;1.23;0.73;;;;;;;4.73;58.12;99700.63;4982120;28;20037;-66
2021/12/01 00:28:25;;;;;;;1.65;0.80;;;;;;;4.64;58.67;99690.59;4974071;28;20261;-69
2021/12/01 00:30:52;;;;;;;2.45;0.88;;;;;;;4.69;58.77;99680.06;4980320;28;20399;-66
2021/12/01 00:33:22;;;;;;;2.75;0.63;;;;;;;4.89;57.59;99671.66;4978002;28;20042;-67
2021/12/01 00:35:50;;;;;;;3.17;0.88;;;;;;;4.55;58.98;99665.03;4976520;28;20042;-67
2021/12/01 00:38:15;;;;;;;5.75;1.40;;;;;;;4.18;60.42;99658.47;4976751;28;20436;-66
2021/12/01 00:40:41;;;;;;;5.32;1.73;;;;;;;4.40;59.67;99662.03;4977416;28;20034;-67
2021/12/01 00:43:06;;;;;;;2.97;0.70;;;;;;;4.37;59.66;99633.69;4979718;28;20140;-65
2021/12/01 00:45:33;;;;;;;3.13;1.38;;;;;;;4.86;58.39;99635.47;4961758;28;20078;-68
2021/12/01 00:48:00;;;;;;;2.90;1.00;;;;;;;4.10;60.25;99634.63;4979202;28;20043;-67
2021/12/01 00:50:32;;;;;;;2.00;0.80;;;;;;;4.78;58.55;99617.63;4978680;28;20065;-67
2021/12/01 00:53:04;;;;;;;2.00;0.70;;;;;;;4.98;58.13;99603.97;4989945;28;20116;-66
2021/12/01 00:55:29;;;;;;;2.22;0.60;;;;;;;4.88;58.16;99607.78;4976408;28;20101;-65
2021/12/01 00:57:56;;;;;;;1.90;1.13;;;;;;;4.72;58.88;99587.63;4978063;28;20038;-65
2021/12/01 01:00:25;;;;;;;2.35;0.75;;;;;;;4.71;59.21;99590.28;4977690;28;20328;-64
2021/12/01 01:02:51;;;;;;;2.03;0.50;;;;;;;4.64;59.36;99574.13;4980994;28;20443;-66
2021/12/01 01:05:18;;;;;;;2.17;0.90;;;;;;;4.79;58.71;99570.97;4980812;28;20038;-66
2021/12/01 01:07:44;;;;;;;1.92;0.63;;;;;;;4.75;59.48;99555.63;4976165;28;20133;-65
2021/12/01 01:10:30;;;;;;;3.53;0.65;;;;;;;4.43;60.66;99555.88;4989220;28;20052;-65
2021/12/01 01:18:54;;;;;;;1.48;0.43;;;;;;;4.97;59.17;99529.81;4909621;29;20164;-67
2021/12/01 01:21:21;;;;;;;2.65;1.05;;;;;;;5.11;58.51;99521.50;4966348;28;20547;-69
2021/12/01 01:23:47;;;;;;;2.65;0.82;;;;;;;5.10;58.81;99518.06;4972482;28;20057;-67
2021/12/01 01:26:17;;;;;;;2.00;0.60;;;;;;;5.18;58.44;99518.59;4980171;28;20530;-67
2021/12/01 01:28:44;;;;;;;1.90;0.90;;;;;;;5.29;58.85;99504.38;4977890;28;20822;-66
2021/12/01 01:31:11;;;;;;;1.60;0.77;;;;;;;4.90;60.15;99492.06;4987916;28;20076;-65
2021/12/01 01:33:37;;;;;;;2.47;0.75;;;;;;;4.59;61.43;99490.63;4976900;28;20042;-65
2021/12/01 01:36:03;;;;;;;1.38;0.60;;;;;;;5.36;59.10;99472.13;4980463;28;20062;-63
2021/12/01 01:38:31;;;;;;;2.17;0.80;;;;;;;5.13;60.29;99457.53;4976343;28;20030;-63
2021/12/01 01:41:02;;;;;;;1.85;0.73;;;;;;;5.55;59.13;99448.91;4974289;28;20546;-64
2021/12/01 01:43:28;;;;;;;2.15;0.80;;;;;;;5.45;59.20;99443.25;4974632;28;20055;-64
2021/12/01 01:45:56;;;;;;;3.30;1.15;;;;;;;5.39;59.78;99433.13;4980328;28;20045;-64
2021/12/01 01:48:32;;;;;;;1.75;0.85;;;;;;;5.62;58.63;99424.41;4975130;28;20042;-64
2021/12/01 01:51:00;;;;;;;2.75;1.40;;;;;;;5.41;59.43;99419.25;4975588;28;20097;-64
2021/12/01 01:53:27;;;;;;;2.08;0.98;;;;;;;5.73;58.49;99408.41;4973602;28;20046;-65
2021/12/01 01:55:55;;;;;;;2.90;1.30;;;;;;;5.28;60.12;99412.00;4980863;28;20058;-63
2021/12/01 01:58:22;;;;;;;3.83;1.85;;;;;;;5.87;58.79;99393.06;4951602;28;21027;-65
2021/12/01 02:00:52;;;;;;;3.85;1.85;;;;;;;5.69;59.19;99389.53;4979523;28;20041;-65
2021/12/01 02:03:22;;;;;;;3.25;1.55;;;;;;;5.71;59.49;99377.34;4975848;28;20045;-65
2021/12/01 02:05:49;;;;;;;4.05;2.30;;;;;;;5.67;59.50;99371.44;4978672;28;20050;-63
2021/12/01 02:08:17;;;;;;;5.95;2.65;;;;;;;5.87;59.29;99361.97;4992099;28;20419;-65
2021/12/01 02:10:49;;;;;;;6.93;3.25;;;;;;;5.97;59.47;99352.88;4978629;28;20035;-65
2021/12/01 02:13:17;;;;;;;6.90;2.97;;;;;;;5.87;59.68;99356.78;4975595;28;20061;-64
2021/12/01 02:15:47;;;;;;;8.75;4.63;;;;;;;5.94;59.95;99346.97;4987253;28;20053;-66
2021/12/01 02:18:13;;;;;;;9.55;4.32;;;;;;;6.07;59.90;99332.53;4975467;28;20038;-65
2021/12/01 02:20:39;;;;;;;10.98;5.18;;;;;;;5.89;60.17;99321.25;4969811;28;20030;-64
2021/12/01 02:23:05;;;;;;;13.25;6.93;;;;;;;5.94;60.79;99327.06;4971995;28;20038;-65
2021/12/01 02:25:30;;;;;;;14.55;8.25;;;;;;;6.21;59.96;99316.34;4976412;28;20037;-64
2021/12/01 02:27:56;;;;;;;15.07;6.80;;;;;;;5.85;61.28;99314.50;4973845;28;20089;-65
2021/12/01 02:30:25;;;;;;;13.48;7.93;;;;;;;5.64;61.75;99308.56;4975832;28;20066;-65
2021/12/01 02:32:51;;;;;;;15.40;8.68;;;;;;;5.79;62.47;99302.69;4978822;28;20038;-65
2021/12/01 02:35:17;;;;;;;17.02;7.95;;;;;;;6.43;60.02;99291.06;4979399;28;20625;-65
2021/12/01 02:37:42;;;;;;;13.80;8.13;;;;;;;6.15;61.05;99272.50;4977698;28;20043;-66
2021/12/01 02:40:09;;;;;;;17.27;8.98;;;;;;;6.27;60.93;99271.94;4970370;28;20544;-65
2021/12/01 02:42:34;;;;;;;16.92;8.27;;;;;;;6.44;60.12;99260.75;4977278;28;20513;-64
2021/12/01 02:44:59;;;;;;;17.38;9.10;;;;;;;6.33;61.01;99253.53;4979662;28;20045;-64
2021/12/01 02:47:26;;;;;;;15.93;9.05;;;;;;;6.56;60.24;99246.38;4977295;28;21859;-63
2021/12/01 02:49:54;;;;;;;17.95;9.10;;;;;;;6.72;60.16;99247.28;4975467;28;20195;-64
2021/12/01 02:52:23;;;;;;;19.55;9.77;;;;;;;6.63;60.47;99232.16;4976011;28;20423;-64
2021/12/01 02:54:50;;;;;;;17.50;9.88;;;;;;;6.29;61.53;99223.44;4976486;28;20084;-63
2021/12/01 02:57:16;;;;;;;20.75;10.93;;;;;;;6.70;60.35;99210.16;4974764;28;20042;-65
2021/12/01 02:59:42;;;;;;;19.65;10.52;;;;;;;6.32;61.86;99218.09;4976930;28;20046;-65
2021/12/01 03:02:08;;;;;;;20.23;11.23;;;;;;;6.61;60.86;99208.03;4975985;28;20037;-65
2021/12/01 03:04:35;;;;;;;23.88;10.43;;;;;;;7.07;59.32;99196.13;4983878;28;20049;-64
2021/12/01 03:07:02;;;;;;;19.00;10.10;;;;;;;6.69;60.96;99185.97;4975299;28;20169;-64
2021/12/01 03:09:27;;;;;;;17.65;10.32;;;;;;;6.64;61.23;99181.91;4977672;28;20073;-64
2021/12/01 03:11:53;;;;;;;17.00;9.63;;;;;;;6.61;61.25;99159.53;4976902;28;20046;-66
2021/12/01 03:14:20;;;;;;;18.23;9.30;;;;;;;6.69;60.85;99164.34;4976739;28;20034;-64
2021/12/01 03:16:47;;;;;;;18.02;9.07;;;;;;;6.49;61.79;99158.41;4977224;28;20038;-64
2021/12/01 03:19:12;;;;;;;17.02;8.00;;;;;;;6.64;61.20;99137.78;4973961;28;20034;-63
2021/12/01 03:21:39;;;;;;;16.52;7.38;;;;;;;6.93;60.04;99143.22;4977047;28;20419;-63
2021/12/01 03:24:05;;;;;;;13.35;8.10;;;;;;;6.32;61.69;99114.31;4998232;23;20041;-67
2021/12/01 03:26:31;;;;;;;16.10;7.22;;;;;;;6.49;61.93;99124.66;5009769;28;20362;-68
2021/12/01 03:28:57;;;;;;;14.20;6.75;;;;;;;6.93;60.21;99119.84;4986580;28;20427;-69
2021/12/01 03:31:23;;;;;;;11.07;6.35;;;;;;;6.03;63.35;99113.97;5010896;28;20041;-69
2021/12/01 03:33:49;;;;;;;10.85;5.43;;;;;;;6.72;61.26;99107.06;5002781;28;20506;-70
2021/12/01 03:36:15;;;;;;;8.02;4.25;;;;;;;6.66;61.56;99102.19;5011346;28;20039;-67
2021/12/01 03:38:40;;;;;;;7.88;4.65;;;;;;;6.94;60.34;99100.75;5010624;28;20073;-67
2021/12/01 03:41:06;;;;;;;7.45;4.38;;;;;;;6.39;62.93;99094.06;5011446;28;20034;-68
2021/12/01 03:43:31;;;;;;;7.57;3.75;;;;;;;7.24;59.72;99083.50;5011372;28;20033;-68
2021/12/01 03:45:57;;;;;;;8.80;4.07;;;;;;;6.76;61.54;99084.41;5010962;28;20493;-69
2021/12/01 03:48:25;;;;;;;11.10;4.22;;;;;;;6.24;63.03;99072.31;5010448;28;20038;-69
2021/12/01 03:50:52;;;;;;;5.07;3.08;;;;;;;6.76;61.70;99056.66;5010653;28;20076;-67
2021/12/01 03:53:20;;;;;;;6.80;3.28;;;;;;;6.37;62.69;99059.56;5012549;28;20482;-67
2021/12/01 03:55:46;;;;;;;10.65;3.67;;;;;;;6.47;62.54;99046.06;5014122;28;20123;-73
2021/12/01 03:58:12;;;;;;;5.85;3.55;;;;;;;7.17;60.23;99037.16;5012459;28;20041;-70
2021/12/01 04:00:38;;;;;;;4.95;2.83;;;;;;;6.43;63.09;99028.13;5012070;28;20044;-68
2021/12/01 04:03:04;;;;;;;8.70;3.90;;;;;;;6.43;63.00;99021.16;4994888;28;20034;-67
2021/12/01 04:05:31;;;;;;;6.38;3.10;;;;;;;6.64;62.16;99013.16;5010163;28;20034;-67
2021/12/01 04:07:56;;;;;;;6.35;4.07;;;;;;;6.76;61.87;98998.72;4976744;28;20037;-67
2021/12/01 04:10:22;;;;;;;7.50;3.38;;;;;;;6.66;62.44;98986.22;5011125;28;20049;-70
2021/12/01 04:12:49;;;;;;;5.43;2.63;;;;;;;7.09;60.58;98985.63;5002040;28;20034;-65
2021/12/01 04:15:15;;;;;;;6.10;3.42;;;;;;;6.84;61.87;98976.59;4996274;28;20502;-72
2021/12/01 04:17:43;;;;;;;6.38;4.10;;;;;;;7.21;60.72;98974.53;5010497;28;20041;-70
2021/12/01 04:20:12;;;;;;;5.57;3.90;;;;;;;7.20;60.78;98967.69;5012074;28;20038;-70
2021/12/01 04:22:37;;;;;;;5.25;3.25;;;;;;;7.29;59.97;98961.13;4995367;28;20038;-71
2021/12/01 04:25:04;;;;;;;4.65;2.35;;;;;;;7.10;60.74;98962.16;5014478;28;20384;-71
2021/12/01 04:27:30;;;;;;;3.13;1.98;;;;;;;6.33;63.42;98957.72;5007838;28;20038;-68
2021/12/01 04:29:55;;;;;;;3.25;1.55;;;;;;;6.52;63.49;98943.75;5012709;28;20497;-71
2021/12/01 04:32:21;;;;;;;4.18;1.23;;;;;;;6.57;63.13;98941.75;5009428;28;20053;-71
2021/12/01 04:34:46;;;;;;;2.92;1.33;;;;;;;6.85;62.35;98931.53;5001453;28;20059;-70
2021/12/01 04:37:12;;;;;;;2.30;1.05;;;;;;;6.64;62.77;98919.72;5012249;28;20065;-72
2021/12/01 04:39:37;;;;;;;4.15;0.90;;;;;;;6.74;62.97;98915.69;5009655;28;20060;-72
2021/12/01 04:42:05;;;;;;;2.28;0.68;;;;;;;6.30;64.07;98918.94;5010612;28;20494;-72
2021/12/01 04:44:31;;;;;;;1.15;0.50;;;;;;;7.16;61.42;98909.03;4987313;28;20045;-72
2021/12/01 04:46:58;;;;;;;2.55;1.05;;;;;;;7.31;60.62;98908.16;5002178;28;20038;-69
2021/12/01 04:49:25;;;;;;;3.30;0.90;;;;;;;6.78;62.96;98896.44;5009320;28;20399;-69
2021/12/01 04:51:54;;;;;;;1.35;0.50;;;;;;;6.86;62.76;98888.19;5011117;28;20038;-70
2021/12/01 04:54:20;;;;;;;2.10;0.60;;;;;;;6.62;63.32;98893.00;5013355;28;20477;-67
2021/12/01 04:56:47;;;;;;;2.10;0.82;;;;;;;6.50;63.53;98877.19;5014947;28;20030;-69
2021/12/01 04:59:13;;;;;;;2.28;0.52;;;;;;;6.85;62.69;98874.38;5013858;28;20501;-69
2021/12/01 05:01:40;;;;;;;2.13;0.52;;;;;;;6.15;65.15;98863.50;5015016;28;20497;-68
2021/12/01 05:04:06;;;;;;;2.78;0.57;;;;;;;6.58;63.60;98856.00;4990303;28;20021;-67
2021/12/01 05:06:31;;;;;;;4.78;0.47;;;;;;;6.83;62.89;98845.06;5005754;28;20422;-68
2021/12/01 05:08:57;;;;;;;3.80;0.80;;;;;;;7.04;61.52;98839.56;5014000;28;20041;-70
2021/12/01 05:11:24;;;;;;;3.55;0.70;;;;;;;7.38;60.49;98830.66;5014040;28;20120;-69
2021/12/01 05:13:50;;;;;;;3.13;0.60;;;;;;;7.28;61.13;98825.16;5005428;28;20049;-70
2021/12/01 05:16:15;;;;;;;1.98;0.22;;;;;;;6.97;62.34;98810.50;4996433;28;20506;-70
2021/12/01 05:18:41;;;;;;;0.80;0.20;;;;;;;6.97;62.16;98812.28;5015255;28;20033;-69
2021/12/01 05:21:06;;;;;;;1.95;0.50;;;;;;;6.37;64.40;98806.09;5011502;28;20509;-70
2021/12/01 05:23:32;;;;;;;0.65;0.20;;;;;;;6.29;64.00;98779.78;5003074;28;20446;-71
2021/12/01 05:25:57;;;;;;;2.30;0.57;;;;;;;6.89;61.90;98777.22;5014750;28;20060;-70
2021/12/01 05:28:23;;;;;;;3.30;0.30;;;;;;;6.48;63.83;98776.97;5012655;28;20074;-71
2021/12/01 05:30:49;;;;;;;2.25;0.28;;;;;;;6.74;62.54;98772.91;5012932;28;20049;-72
2021/12/01 05:33:15;;;;;;;1.15;0.28;;;;;;;6.97;62.16;98760.34;4997629;28;20080;-71
2021/12/01 05:35:42;;;;;;;1.85;0.40;;;;;;;6.67;62.43;98761.19;4996795;28;20509;-69
2021/12/01 05:38:09;;;;;;;0.80;0.28;;;;;;;7.12;61.45;98738.66;5012078;28;20047;-70
2021/12/01 05:40:35;;;;;;;0.93;0.40;;;;;;;7.13;60.78;98737.72;5013592;28;20079;-70
2021/12/01 05:43:01;;;;;;;1.85;0.30;;;;;;;6.94;61.82;98726.78;5011465;28;20029;-69
2021/12/01 05:45:26;;;;;;;1.27;0.30;;;;;;;6.32;64.47;98722.50;5013718;28;20689;-71
2021/12/01 05:47:52;;;;;;;4.20;0.40;;;;;;;6.86;61.98;98707.28;5010138;28;20436;-71
2021/12/01 05:50:18;;;;;;;2.97;0.43;;;;;;;6.26;63.89;98702.06;5015290;28;20145;-72
2021/12/01 05:52:44;;;;;;;1.55;0.70;;;;;;;6.69;63.14;98697.06;5013850;28;20523;-71
2021/12/01 05:55:09;;;;;;;2.15;0.35;;;;;;;6.35;63.74;98679.97;5013873;28;20041;-71
2021/12/01 05:57:36;;;;;;;0.93;0.35;;;;;;;6.72;62.21;98691.66;5013735;28;20620;-72
2021/12/01 06:00:04;;;;;;;2.03;0.35;;;;;;;6.85;62.37;98671.00;5014546;28;20121;-71
2021/12/01 06:02:30;;;;;;;1.23;0.30;;;;;;;6.98;61.78;98673.72;5014339;28;20418;-71
2021/12/01 06:04:55;;;;;;;0.85;0.30;;;;;;;6.99;61.70;98665.81;5003552;28;20052;-71
2021/12/01 06:07:20;;;;;;;1.52;0.65;;;;;;;7.06;61.08;98658.50;5013507;28;20041;-71
2021/12/01 06:09:46;;;;;;;2.35;0.30;;;;;;;6.64;62.59;98652.34;5013088;28;20040;-73
2021/12/01 06:12:12;;;;;;;2.30;0.25;;;;;;;6.61;62.59;98652.53;5013366;28;20042;-70
2021/12/01 06:14:41;;;;;;;1.00;0.30;;;;;;;6.91;61.92;98655.06;5010568;28;20037;-71
2021/12/01 06:17:08;;;;;;;1.67;0.20;;;;;;;6.40;63.40;98645.06;5011020;28;20482;-71
2021/12/01 06:19:34;;;;;;;0.90;0.20;;;;;;;6.45;63.78;98627.47;5012436;28;20025;-71
2021/12/01 06:22:00;;;;;;;0.82;0.13;;;;;;;6.34;63.34;98631.63;5012564;28;20401;-71
2021/12/01 06:24:26;;;;;;;0.45;0.20;;;;;;;6.09;64.30;98631.25;5005761;28;20469;-71
2021/12/01 06:26:51;;;;;;;1.25;0.40;;;;;;;6.45;63.39;98617.09;5010226;28;20076;-73
2021/12/01 06:29:17;;;;;;;0.73;0.20;;;;;;;6.41;63.28;98612.19;4992301;28;20124;-72
2021/12/01 06:31:42;;;;;;;0.80;0.13;;;;;;;6.15;63.41;98606.72;5008945;28;20128;-72
2021/12/01 06:34:07;;;;;;;0.90;0.30;;;;;;;6.53;62.77;98605.41;4987565;28;20042;-71
2021/12/01 06:36:33;;;;;;;0.88;0.25;;;;;;;6.67;62.17;98589.88;5009580;28;20053;-71
2021/12/01 06:38:59;;;;;;;1.00;0.50;;;;;;;6.16;63.80;98612.75;5013551;28;20065;-69
2021/12/01 06:41:25;;;;;;;0.57;0.20;;;;;;;6.44;62.60;98589.50;5010996;28;20034;-69
2021/12/01 06:43:50;;;;;;;1.20;0.20;;;;;;;5.94;63.88;98585.44;5009962;28;20048;-68
2021/12/01 06:46:16;;;;;;;1.10;0.30;;;;;;;5.76;64.43;98579.53;5003161;28;20429;-68
2021/12/01 06:48:41;;;;;;;0.63;0.20;;;;;;;6.16;63.17;98573.84;5011550;28;20391;-67
2021/12/01 06:51:07;;;;;;;0.68;0.10;;;;;;;6.22;63.01;98576.09;5011822;28;20096;-68
2021/12/01 06:53:32;;;;;;;0.40;0.10;;;;;;;5.46;65.04;98556.22;4975528;28;20132;-68
2021/12/01 06:55:58;;;;;;;0.63;0.30;;;;;;;5.92;63.85;98543.22;5012311;28;20045;-69
2021/12/01 06:58:23;;;;;;;0.30;0.10;;;;;;;5.64;64.11;98539.63;5010419;28;20054;-69
2021/12/01 07:00:49;;;;;;;0.57;0.10;;;;;;;6.21;62.52;98532.91;5012848;28;20047;-67
2021/12/01 07:03:14;;;;;;;0.52;0.20;;;;;;;5.75;64.15;98525.19;5009396;28;20045;-69
2021/12/01 07:05:40;;;;;;;0.50;0.20;;;;;;;5.63;64.33;98517.19;5011757;28;20043;-69
2021/12/01 07:08:05;;;;;;;0.60;0.10;;;;;;;5.87;64.12;98516.72;4995758;28;20057;-69
2021/12/01 07:10:31;;;;;;;0.40;0.15;;;;;;;5.57;64.98;98511.53;5002940;28;20363;-69
2021/12/01 07:12:57;;;;;;;0.90;0.40;;;;;;;5.58;64.69;98511.44;5010849;28;20048;-69
2021/12/01 07:15:22;;;;;;;0.22;0.10;;;;;;;5.74;63.99;98501.03;5003870;28;20117;-68
2021/12/01 07:17:48;;;;;;;1.90;0.13;;;;;;;6.32;61.82;98501.16;5012476;28;20119;-69
2021/12/01 07:20:14;;;;;;;0.60;0.20;;;;;;;5.75;63.19;98483.72;5010945;28;20172;-68
2021/12/01 07:22:41;;;;;;;1.00;0.20;;;;;;;5.50;64.10;98479.13;4998798;28;20524;-69
2021/12/01 07:25:07;;;;;;;1.17;0.25;;;;;;;5.74;63.56;98480.31;5000468;28;20112;-69
2021/12/01 07:27:33;;;;;;;0.85;0.30;;;;;;;6.07;62.46;98456.75;4999329;28;20068;-69
2021/12/01 07:29:59;;;;;;;0.93;0.20;;;;;;;5.75;63.49;98457.81;5011257;28;20168;-69
2021/12/01 07:32:24;;;;;;;2.55;0.20;;;;;;;5.70;63.35;98447.69;4994385;28;20046;-68
2021/12/01 07:34:50;;;;;;;0.75;0.20;;;;;;;5.73;62.72;98454.50;5001127;28;20387;-68
2021/12/01 07:37:17;;;;;;;0.60;0.20;;;;;;;5.77;63.11;98448.19;5010051;28;20159;-69
2021/12/01 07:39:44;;;;;;;0.80;0.30;;;;;;;6.01;62.21;98433.75;5009801;28;20025;-68
2021/12/01 07:42:12;;;;;;;0.73;0.30;;;;;;;5.83;62.72;98422.72;4994055;28;20038;-68
2021/12/01 07:44:37;;;;;;;1.33;0.40;;;;;;;5.69;63.41;98440.03;5010306;28;20036;-68
2021/12/01 07:47:04;;;;;;;2.15;0.30;;;;;;;5.96;62.23;98422.84;5011025;28;20390;-69
2021/12/01 07:49:29;;;;;;;0.88;0.30;;;;;;;5.72;62.76;98408.75;4997136;28;20048;-68
2021/12/01 07:51:55;;;;;;;0.70;0.30;;;;;;;5.74;61.98;98418.09;5011896;28;20050;-68
2021/12/01 07:54:21;;;;;;;0.88;0.30;;;;;;;5.45;63.54;98427.56;5009110;28;20043;-69
2021/12/01 07:56:46;;;;;;;1.20;0.47;;;;;;;5.69;63.47;98414.94;5009410;28;20045;-68
2021/12/01 07:59:15;;;;;;;0.95;0.50;;;;;;;5.69;63.00;98398.56;4991151;28;20053;-68
2021/12/01 08:01:42;;;;;;;0.80;0.30;;;;;;;5.43;63.68;98400.91;4994441;28;20037;-69
2021/12/01 08:04:08;;;;;;;1.08;0.50;;;;;;;5.88;62.39;98384.44;4999393;28;20029;-68
2021/12/01 08:06:35;;;;;;;1.10;0.45;;;;;;;5.63;62.80;98379.84;4994892;28;20405;-68
2021/12/01 08:09:01;;;;;;;1.05;0.50;;;;;;;5.99;61.72;98365.59;5012409;28;20065;-69
2021/12/01 08:11:27;;;;;;;1.30;0.52;;;;;;;5.31;64.16;98378.34;5011345;28;20445;-68
2021/12/01 08:13:53;;;;;;;1.30;0.60;;;;;;;5.62;63.52;98375.59;5009900;28;20132;-68
2021/12/01 08:16:18;;;;;;;1.30;0.60;;;;;;;5.63;63.13;98373.84;5010481;28;20620;-69
2021/12/01 08:18:44;;;;;;;1.33;0.50;;;;;;;5.39;64.00;98370.94;5008962;28;20473;-71
2021/12/01 08:21:09;;;;;;;1.27;0.40;;;;;;;5.10;64.57;98352.75;5008868;28;20048;-69
2021/12/01 08:23:35;;;;;;;1.73;0.90;;;;;;;5.83;62.56;98351.91;5012680;28;20068;-68
2021/12/01 08:26:00;;;;;;;1.23;0.52;;;;;;;5.66;63.65;98343.41;4999372;28;20064;-68
2021/12/01 08:28:26;;;;;;;1.25;0.47;;;;;;;5.79;62.93;98346.09;5009773;28;20049;-68
2021/12/01 08:30:51;;;;;;;2.03;0.65;;;;;;;5.77;62.39;98345.34;5014502;28;20274;-70
2021/12/01 08:33:17;;;;;;;1.17;0.47;;;;;;;5.80;62.53;98349.53;5013588;28;20157;-69
2021/12/01 08:35:42;;;;;;;1.15;0.40;;;;;;;5.30;64.28;98325.72;5014971;28;20022;-69
2021/12/01 08:38:08;;;;;;;0.73;0.20;;;;;;;5.30;64.39;98311.91;5012062;28;20045;-69
2021/12/01 08:40:34;;;;;;;0.70;0.40;;;;;;;5.58;63.06;98311.94;4990974;28;20037;-69
2021/12/01 08:42:59;;;;;;;0.88;0.30;;;;;;;5.60;62.54;98293.72;5014213;28;20180;-70
2021/12/01 08:45:25;;;;;;;1.52;0.45;;;;;;;5.46;62.84;98295.38;5014964;28;20033;-68
2021/12/01 08:47:50;;;;;;;1.40;0.60;;;;;;;5.94;61.88;98300.25;5016119;28;20104;-70
2021/12/01 08:50:16;;;;;;;6.35;0.60;;;;;;;4.64;65.76;98306.97;5016382;28;20040;-69
2021/12/01 08:52:41;;;;;;;1.67;0.55;;;;;;;5.41;63.62;98304.31;5004574;28;20405;-69
2021/12/01 08:55:08;;;;;;;1.45;0.40;;;;;;;5.96;62.19;98275.06;5015435;28;20125;-69
2021/12/01 08:57:34;;;;;;;0.98;0.35;;;;;;;5.80;62.14;98267.41;5016174;28;20116;-69
2021/12/01 08:59:59;;;;;;;0.70;0.25;;;;;;;6.07;61.80;98257.06;5013755;28;20060;-69
2021/12/01 09:02:25;;;;;;;0.73;0.22;;;;;;;5.72;62.31;98248.06;5014961;28;20042;-69
2021/12/01 09:04:50;;;;;;;0.63;0.20;;;;;;;6.17;60.68;98248.69;5004725;28;20452;-68
2021/12/01 09:07:20;;;;;;;2.33;0.40;;;;;;;6.38;59.81;98234.38;5013938;28;20048;-68
2021/12/01 09:09:46;;;;;;;3.15;0.28;;;;;;;6.20;60.61;98218.22;5013704;28;20298;-68
2021/12/01 09:12:14;;;;;;;0.80;0.30;;;;;;;6.27;60.28;98218.66;5014434;28;20039;-68
2021/12/01 09:14:42;;;;;;;2.15;0.32;;;;;;;5.81;61.45;98216.38;5013628;28;20450;-68
2021/12/01 09:17:09;;;;;;;1.67;0.60;;;;;;;5.63;61.81;98206.22;5013112;28;20415;-68
2021/12/01 09:19:36;;;;;;;0.98;0.30;;;;;;;5.32;63.14;98202.09;5014211;28;20026;-68
2021/12/01 09:22:01;;;;;;;0.88;0.30;;;;;;;5.69;62.07;98173.09;5015291;28;20399;-68
2021/12/01 09:24:27;;;;;;;0.73;0.32;;;;;;;5.55;62.65;98179.16;5013912;28;20037;-68
2021/12/01 09:26:52;;;;;;;1.27;0.47;;;;;;;5.65;62.37;98191.41;5013518;28;20094;-68
2021/12/01 09:29:18;;;;;;;0.95;0.40;;;;;;;5.80;62.06;98194.00;4999749;28;20038;-67
2021/12/01 09:31:44;;;;;;;2.22;0.47;;;;;;;5.96;61.92;98189.50;5012970;28;20037;-69
2021/12/01 09:34:09;;;;;;;1.08;0.55;;;;;;;5.95;61.70;98193.03;5011765;28;20140;-67
2021/12/01 09:36:35;;;;;;;1.17;0.43;;;;;;;5.29;63.18;98199.69;5012515;28;20117;-68
2021/12/01 09:39:00;;;;;;;1.70;0.65;;;;;;;5.61;61.79;98189.97;4999639;28;20160;-68
2021/12/01 09:41:26;;;;;;;1.83;0.55;;;;;;;5.53;61.55;98181.00;5014030;28;20041;-68
2021/12/01 09:43:52;;;;;;;1.05;0.40;;;;;;;5.10;62.28;98160.31;4977889;28;20056;-68
2021/12/01 09:46:20;;;;;;;1.65;0.30;;;;;;;5.42;61.13;98184.25;5013845;28;20486;-67
2021/12/01 09:48:46;;;;;;;1.02;0.20;;;;;;;6.01;59.69;98163.28;5011575;28;20178;-68
2021/12/01 09:51:16;;;;;;;0.60;0.30;;;;;;;5.82;59.71;98169.63;5013904;28;20461;-68
2021/12/01 09:53:43;;;;;;;2.53;0.50;;;;;;;6.08;58.90;98131.69;5011804;28;20037;-68
2021/12/01 09:56:09;;;;;;;0.60;0.10;;;;;;;5.55;59.89;98141.13;5013663;28;20072;-68
2021/12/01 09:58:35;;;;;;;6.43;0.43;;;;;;;6.36;58.22;98171.38;5011906;28;20030;-68
2021/12/01 10:01:07;;;;;;;2.38;0.52;;;;;;;5.75;59.40;98141.59;5013079;28;20033;-68
2021/12/01 10:03:33;;;;;;;0.63;0.20;;;;;;;5.72;59.70;98149.56;5012868;28;20049;-68
2021/12/01 10:06:07;;;;;;;3.83;0.55;;;;;;;5.41;60.11;98128.19;5011836;28;20042;-68
2021/12/01 10:08:54;;;;;;;2.45;1.05;;;;;;;5.44;59.73;98138.38;5013372;28;20382;-68
2021/12/01 10:11:24;;;;;;;4.13;0.40;;;;;;;5.78;58.84;98128.47;5010723;28;20061;-67
2021/12/01 10:13:55;;;;;;;8.48;0.55;;;;;;;5.51;59.57;98134.47;5011453;28;20045;-68
2021/12/01 10:16:22;;;;;;;1.35;0.20;;;;;;;5.58;58.71;98140.91;5014423;28;20045;-68
2021/12/01 10:18:50;;;;;;;2.80;0.20;;;;;;;5.13;61.12;98131.66;5011261;28;20037;-70
2021/12/01 10:21:20;;;;;;;2.60;0.52;;;;;;;5.89;59.57;98115.63;5012854;28;20053;-68
2021/12/01 10:23:51;;;;;;;2.63;0.20;;;;;;;5.93;59.88;98127.47;5012986;28;20037;-69
2021/12/01 10:26:21;;;;;;;6.15;0.38;;;;;;;5.63;60.60;98138.03;5012528;28;20034;-68
2021/12/01 10:28:56;;;;;;;3.15;0.40;;;;;;;5.65;60.49;98121.44;5011004;28;20034;-68
2021/12/01 10:31:55;;;;;;;4.15;1.13;;;;;;;6.03;59.03;98102.59;4996291;28;20111;-70
2021/12/01 10:34:57;;;;;;;3.63;0.20;;;;;;;5.60;59.34;98105.38;4964297;28;20503;-69
2021/12/01 10:37:29;;;;;;;3.53;0.35;;;;;;;5.98;58.16;98083.94;4979996;28;20102;-68
2021/12/01 10:40:04;;;;;;;1.33;0.60;;;;;;;5.92;58.43;98079.13;5010551;28;20120;-69
2021/12/01 10:42:31;;;;;;;3.15;0.47;;;;;;;5.78;57.90;98076.63;5012477;28;20116;-70
2021/12/01 10:44:59;;;;;;;2.35;0.10;;;;;;;5.63;57.82;98073.25;5012056;28;20432;-68
2021/12/01 10:47:36;;;;;;;3.90;0.50;;;;;;;5.64;58.24;98070.56;5014149;28;20033;-68
2021/12/01 10:50:03;;;;;;;2.83;0.25;;;;;;;5.89;57.40;98063.78;4994229;28;20413;-69
2021/12/01 10:52:33;;;;;;;1.80;0.20;;;;;;;5.38;58.39;98053.25;5012372;28;20573;-68
2021/12/01 10:55:15;;;;;;;5.13;0.20;;;;;;;5.86;57.37;98053.63;5013055;28;20415;-69
2021/12/01 10:57:58;;;;;;;2.72;0.17;;;;;;;5.07;58.99;98062.94;5010827;28;20029;-68
2021/12/01 11:00:41;;;;;;;1.23;0.10;;;;;;;5.70;57.28;98033.03;5011901;28;20498;-70
2021/12/01 11:03:09;;;;;;;2.92;0.45;;;;;;;5.67;57.48;98038.44;4994562;28;20399;-70
2021/12/01 11:05:39;;;;;;;6.55;1.10;;;;;;;5.44;58.19;98045.94;4999176;28;20064;-70
2021/12/01 11:08:15;;;;;;;4.93;0.20;;;;;;;5.65;57.94;98035.13;5011092;28;20108;-68
2021/12/01 11:10:42;;;;;;;8.35;0.50;;;;;;;5.66;58.32;98037.63;5012083;28;20038;-68
2021/12/01 11:13:08;;;;;;;6.25;0.30;;;;;;;5.46;58.61;98038.06;5011566;28;20153;-68
2021/12/01 11:15:39;;;;;;;6.32;0.63;;;;;;;5.33;58.69;98022.47;5014045;28;20551;-67
2021/12/01 11:18:07;;;;;;;5.30;0.32;;;;;;;5.82;56.23;98005.50;5009996;28;20254;-68
2021/12/01 11:20:54;;;;;;;5.47;0.20;;;;;;;6.02;55.67;98006.78;5013684;28;20026;-68
2021/12/01 11:23:32;;;;;;;5.28;0.45;;;;;;;6.44;54.28;98005.69;5009750;28;20531;-67
2021/12/01 11:26:20;;;;;;;6.93;0.20;;;;;;;5.57;56.42;97990.72;4995124;28;20033;-68
2021/12/01 11:28:49;;;;;;;4.22;0.65;;;;;;;6.07;55.11;97983.97;5011620;28;20033;-67
2021/12/01 11:31:21;;;;;;;4.68;0.30;;;;;;;5.57;56.48;97970.00;5011808;28;20038;-68
2021/12/01 11:33:49;;;;;;;2.72;0.10;;;;;;;6.06;55.33;97977.94;5009607;28;20081;-68
2021/12/01 11:36:20;;;;;;;2.38;0.45;;;;;;;5.80;55.34;97952.94;5011414;28;20037;-67
2021/12/01 11:38:51;;;;;;;13.43;0.70;;;;;;;5.89;55.60;97962.69;5009936;28;20037;-67
2021/12/01 11:41:19;;;;;;;2.05;0.68;;;;;;;6.08;54.29;97937.19;5002399;28;20106;-67
2021/12/01 11:43:45;;;;;;;7.25;0.50;;;;;;;6.14;53.52;97953.25;5010215;28;20044;-66
2021/12/01 11:46:11;;;;;;;2.35;0.45;;;;;;;5.43;56.31;97960.53;5008917;28;20029;-68
2021/12/01 11:48:45;;;;;;;3.97;0.20;;;;;;;5.82;54.73;97945.91;5011891;28;20069;-69